sensor_id;sensor_type;location;lat;lon;timestamp;temperature;humidity
16515;DHT22;8370;52.556;7.970;2022-09-27T00:00:36;11.20;99.90
16515;DHT22;8370;52.556;7.970;2022-09-27T00:03:02;11.20;99.90
16515;DHT22;8370;52.556;7.970;2022-09-27T00:05:28;11.20;99.90
16515;DHT22;8370;52.556;7.970;2022-09-27T00:07:55;11.10;99.90
16515;DHT22;8370;52.556;7.970;2022-09-27T00:10:20;11.10;99.90
16515;DHT22;8370;52.556;7.970;2022-09-27T00:12:46;11.10;99.90
16515;DHT22;8370;52.556;7.970;2022-09-27T00:15:13;11.10;99.90
16515;DHT22;8370;52.556;7.970;2022-09-27T00:17:39;11.10;99.90
16515;DHT22;8370;52.556;7.970;2022-09-27T00:20:06;11.10;99.90
16515;DHT22;8370;52.556;7.970;2022-09-27T00:22:32;11.10;99.90
16515;DHT22;8370;52.556;7.970;2022-09-27T00:24:58;11.00;99.90
16515;DHT22;8370;52.556;7.970;2022-09-27T00:27:25;11.00;99.90
16515;DHT22;8370;52.556;7.970;2022-09-27T00:29:51;11.00;99.90
16515;DHT22;8370;52.556;7.970;2022-09-27T00:32:17;11.00;99.90
16515;DHT22;8370;52.556;7.970;2022-09-27T00:34:42;10.90;99.90
16515;DHT22;8370;52.556;7.970;2022-09-27T00:37:08;10.90;99.90
16515;DHT22;8370;52.556;7.970;2022-09-27T00:39:34;10.90;99.90
16515;DHT22;8370;52.556;7.970;2022-09-27T00:42:00;10.90;99.90
16515;DHT22;8370;52.556;7.970;2022-09-27T00:52:34;10.80;99.90
16515;DHT22;8370;52.556;7.970;2022-09-27T00:55:08;10.80;99.90
16515;DHT22;8370;52.556;7.970;2022-09-27T00:57:35;10.70;99.90
16515;DHT22;8370;52.556;7.970;2022-09-27T01:00:05;10.80;99.90
16515;DHT22;8370;52.556;7.970;2022-09-27T01:02:32;10.80;99.90
16515;DHT22;8370;52.556;7.970;2022-09-27T01:05:00;10.80;99.90
16515;DHT22;8370;52.556;7.970;2022-09-27T01:07:26;10.80;99.90
16515;DHT22;8370;52.556;7.970;2022-09-27T01:09:52;10.80;99.90
16515;DHT22;8370;52.556;7.970;2022-09-27T01:32:01;10.70;99.90
16515;DHT22;8370;52.556;7.970;2022-09-27T01:34:52;10.70;99.90
16515;DHT22;8370;52.556;7.970;2022-09-27T01:40:42;10.70;99.90
16515;DHT22;8370;52.556;7.970;2022-09-27T01:43:17;10.60;99.90
16515;DHT22;8370;52.556;7.970;2022-09-27T01:45:53;10.60;99.90
16515;DHT22;8370;52.556;7.970;2022-09-27T01:48:26;10.60;99.90
16515;DHT22;8370;52.556;7.970;2022-09-27T01:51:08;10.60;99.90
16515;DHT22;8370;52.556;7.970;2022-09-27T01:53:47;10.60;99.90
16515;DHT22;8370;52.556;7.970;2022-09-27T01:59:17;10.60;99.90
16515;DHT22;8370;52.556;7.970;2022-09-27T02:01:47;10.60;99.90
16515;DHT22;8370;52.556;7.970;2022-09-27T02:04:18;10.50;99.90
16515;DHT22;8370;52.556;7.970;2022-09-27T02:06:48;10.50;99.90
16515;DHT22;8370;52.556;7.970;2022-09-27T02:09:23;10.50;99.90
16515;DHT22;8370;52.556;7.970;2022-09-27T02:11:53;10.50;99.90
16515;DHT22;8370;52.556;7.970;2022-09-27T02:14:54;10.50;99.90
16515;DHT22;8370;52.556;7.970;2022-09-27T02:20:15;10.50;99.90
16515;DHT22;8370;52.556;7.970;2022-09-27T02:23:04;10.40;99.90
16515;DHT22;8370;52.556;7.970;2022-09-27T02:25:34;10.50;99.90
16515;DHT22;8370;52.556;7.970;2022-09-27T02:28:27;10.40;99.90
16515;DHT22;8370;52.556;7.970;2022-09-27T02:30:54;10.40;99.90
16515;DHT22;8370;52.556;7.970;2022-09-27T02:33:23;10.50;99.90
16515;DHT22;8370;52.556;7.970;2022-09-27T02:35:50;10.50;99.90
16515;DHT22;8370;52.556;7.970;2022-09-27T02:38:16;10.50;99.90
16515;DHT22;8370;52.556;7.970;2022-09-27T02:40:43;10.50;99.90
16515;DHT22;8370;52.556;7.970;2022-09-27T02:43:09;10.50;99.90
16515;DHT22;8370;52.556;7.970;2022-09-27T02:46:02;10.50;99.90
16515;DHT22;8370;52.556;7.970;2022-09-27T02:48:30;10.50;99.90
16515;DHT22;8370;52.556;7.970;2022-09-27T02:56:37;10.40;99.90
16515;DHT22;8370;52.556;7.970;2022-09-27T02:59:20;10.40;99.90
16515;DHT22;8370;52.556;7.970;2022-09-27T03:04:46;10.40;99.90
16515;DHT22;8370;52.556;7.970;2022-09-27T03:07:15;10.40;99.90
16515;DHT22;8370;52.556;7.970;2022-09-27T03:09:42;10.40;99.90
16515;DHT22;8370;52.556;7.970;2022-09-27T03:12:09;10.30;99.90
16515;DHT22;8370;52.556;7.970;2022-09-27T03:14:34;10.30;99.90
16515;DHT22;8370;52.556;7.970;2022-09-27T03:17:00;10.30;99.90
16515;DHT22;8370;52.556;7.970;2022-09-27T03:19:25;10.30;99.90
16515;DHT22;8370;52.556;7.970;2022-09-27T03:21:51;10.30;99.90
16515;DHT22;8370;52.556;7.970;2022-09-27T03:24:16;10.30;99.90
16515;DHT22;8370;52.556;7.970;2022-09-27T03:26:42;10.30;99.90
16515;DHT22;8370;52.556;7.970;2022-09-27T03:29:07;10.20;99.90
16515;DHT22;8370;52.556;7.970;2022-09-27T03:31:33;10.20;99.90
16515;DHT22;8370;52.556;7.970;2022-09-27T03:33:58;10.20;99.90
16515;DHT22;8370;52.556;7.970;2022-09-27T03:36:23;10.10;99.90
16515;DHT22;8370;52.556;7.970;2022-09-27T03:38:49;10.10;99.90
16515;DHT22;8370;52.556;7.970;2022-09-27T03:41:15;10.10;99.90
16515;DHT22;8370;52.556;7.970;2022-09-27T03:43:40;10.10;99.90
16515;DHT22;8370;52.556;7.970;2022-09-27T03:46:06;10.10;99.90
16515;DHT22;8370;52.556;7.970;2022-09-27T03:48:31;10.00;99.90
16515;DHT22;8370;52.556;7.970;2022-09-27T03:50:57;10.00;99.90
16515;DHT22;8370;52.556;7.970;2022-09-27T03:53:22;9.90;99.90
16515;DHT22;8370;52.556;7.970;2022-09-27T03:55:47;10.00;99.90
16515;DHT22;8370;52.556;7.970;2022-09-27T03:58:13;10.00;99.90
16515;DHT22;8370;52.556;7.970;2022-09-27T04:00:39;10.00;99.90
16515;DHT22;8370;52.556;7.970;2022-09-27T04:03:05;10.00;99.90
16515;DHT22;8370;52.556;7.970;2022-09-27T04:05:31;10.00;99.90
16515;DHT22;8370;52.556;7.970;2022-09-27T04:07:57;10.00;99.90
16515;DHT22;8370;52.556;7.970;2022-09-27T04:10:23;10.00;99.90
16515;DHT22;8370;52.556;7.970;2022-09-27T04:12:48;10.00;99.90
16515;DHT22;8370;52.556;7.970;2022-09-27T04:15:14;10.00;99.90
16515;DHT22;8370;52.556;7.970;2022-09-27T04:17:42;9.90;99.90
16515;DHT22;8370;52.556;7.970;2022-09-27T04:20:09;9.90;99.90
16515;DHT22;8370;52.556;7.970;2022-09-27T04:22:38;9.90;99.90
16515;DHT22;8370;52.556;7.970;2022-09-27T04:25:05;9.90;99.90
16515;DHT22;8370;52.556;7.970;2022-09-27T04:27:31;9.90;99.90
16515;DHT22;8370;52.556;7.970;2022-09-27T04:29:56;9.90;99.90
16515;DHT22;8370;52.556;7.970;2022-09-27T04:32:22;9.90;99.90
16515;DHT22;8370;52.556;7.970;2022-09-27T04:34:47;9.90;99.90
16515;DHT22;8370;52.556;7.970;2022-09-27T04:37:31;9.80;99.90
16515;DHT22;8370;52.556;7.970;2022-09-27T04:39:57;9.80;99.90
16515;DHT22;8370;52.556;7.970;2022-09-27T04:42:22;9.80;99.90
16515;DHT22;8370;52.556;7.970;2022-09-27T04:44:48;9.70;99.90
16515;DHT22;8370;52.556;7.970;2022-09-27T04:47:13;9.70;99.90
16515;DHT22;8370;52.556;7.970;2022-09-27T04:49:39;9.70;99.90
16515;DHT22;8370;52.556;7.970;2022-09-27T04:52:04;9.70;99.90
16515;DHT22;8370;52.556;7.970;2022-09-27T04:54:30;9.70;99.90
16515;DHT22;8370;52.556;7.970;2022-09-27T04:56:56;9.70;99.90
16515;DHT22;8370;52.556;7.970;2022-09-27T04:59:21;9.70;99.90
16515;DHT22;8370;52.556;7.970;2022-09-27T05:01:47;9.60;99.90
16515;DHT22;8370;52.556;7.970;2022-09-27T05:04:14;9.60;99.90
16515;DHT22;8370;52.556;7.970;2022-09-27T05:06:40;9.60;99.90
16515;DHT22;8370;52.556;7.970;2022-09-27T05:09:05;9.60;99.90
16515;DHT22;8370;52.556;7.970;2022-09-27T05:11:31;9.60;99.90
16515;DHT22;8370;52.556;7.970;2022-09-27T05:13:56;9.50;99.90
16515;DHT22;8370;52.556;7.970;2022-09-27T05:16:21;9.50;99.90
16515;DHT22;8370;52.556;7.970;2022-09-27T05:18:47;9.40;99.90
16515;DHT22;8370;52.556;7.970;2022-09-27T05:21:13;9.40;99.90
16515;DHT22;8370;52.556;7.970;2022-09-27T05:23:38;9.40;99.90
16515;DHT22;8370;52.556;7.970;2022-09-27T05:26:05;9.50;99.90
16515;DHT22;8370;52.556;7.970;2022-09-27T05:28:31;9.50;99.90
16515;DHT22;8370;52.556;7.970;2022-09-27T05:30:56;9.50;99.90
16515;DHT22;8370;52.556;7.970;2022-09-27T05:33:23;9.40;99.90
16515;DHT22;8370;52.556;7.970;2022-09-27T05:35:56;9.50;99.90
16515;DHT22;8370;52.556;7.970;2022-09-27T05:38:22;9.50;99.90
16515;DHT22;8370;52.556;7.970;2022-09-27T05:40:47;9.50;99.90
16515;DHT22;8370;52.556;7.970;2022-09-27T05:43:15;9.50;99.90
16515;DHT22;8370;52.556;7.970;2022-09-27T05:45:41;9.50;99.90
16515;DHT22;8370;52.556;7.970;2022-09-27T05:48:08;9.50;99.90
16515;DHT22;8370;52.556;7.970;2022-09-27T05:50:34;9.40;99.90
16515;DHT22;8370;52.556;7.970;2022-09-27T05:53:00;9.50;99.90
16515;DHT22;8370;52.556;7.970;2022-09-27T05:55:26;9.50;99.90
16515;DHT22;8370;52.556;7.970;2022-09-27T05:58:02;9.50;99.90
16515;DHT22;8370;52.556;7.970;2022-09-27T06:00:29;9.50;99.90
16515;DHT22;8370;52.556;7.970;2022-09-27T06:02:57;9.60;99.90
16515;DHT22;8370;52.556;7.970;2022-09-27T06:05:24;9.60;99.90
16515;DHT22;8370;52.556;7.970;2022-09-27T06:07:50;9.70;99.90
16515;DHT22;8370;52.556;7.970;2022-09-27T06:10:17;9.70;99.90
16515;DHT22;8370;52.556;7.970;2022-09-27T06:12:43;9.60;99.90
16515;DHT22;8370;52.556;7.970;2022-09-27T06:15:08;9.70;99.90
16515;DHT22;8370;52.556;7.970;2022-09-27T06:17:34;9.70;99.90
16515;DHT22;8370;52.556;7.970;2022-09-27T06:20:00;9.70;99.90
16515;DHT22;8370;52.556;7.970;2022-09-27T06:22:25;9.70;99.90
16515;DHT22;8370;52.556;7.970;2022-09-27T06:24:51;9.80;99.90
16515;DHT22;8370;52.556;7.970;2022-09-27T06:27:16;9.80;99.90
16515;DHT22;8370;52.556;7.970;2022-09-27T06:29:43;9.80;99.90
16515;DHT22;8370;52.556;7.970;2022-09-27T06:32:09;9.70;99.90
16515;DHT22;8370;52.556;7.970;2022-09-27T06:34:35;9.90;99.90
16515;DHT22;8370;52.556;7.970;2022-09-27T06:37:01;9.90;99.90
16515;DHT22;8370;52.556;7.970;2022-09-27T06:39:26;9.90;99.90
16515;DHT22;8370;52.556;7.970;2022-09-27T06:41:54;9.90;99.90
16515;DHT22;8370;52.556;7.970;2022-09-27T06:44:23;9.90;99.90
16515;DHT22;8370;52.556;7.970;2022-09-27T06:46:52;9.90;99.90
16515;DHT22;8370;52.556;7.970;2022-09-27T06:49:20;9.90;99.90
16515;DHT22;8370;52.556;7.970;2022-09-27T06:51:47;10.00;99.90
16515;DHT22;8370;52.556;7.970;2022-09-27T06:54:13;10.00;99.90
16515;DHT22;8370;52.556;7.970;2022-09-27T06:56:38;10.00;99.90
16515;DHT22;8370;52.556;7.970;2022-09-27T06:59:04;10.00;99.90
16515;DHT22;8370;52.556;7.970;2022-09-27T07:01:48;10.00;99.90
16515;DHT22;8370;52.556;7.970;2022-09-27T07:04:16;10.10;99.90
16515;DHT22;8370;52.556;7.970;2022-09-27T07:06:43;10.00;99.90
16515;DHT22;8370;52.556;7.970;2022-09-27T07:09:08;10.10;99.90
16515;DHT22;8370;52.556;7.970;2022-09-27T07:11:34;10.10;99.90
16515;DHT22;8370;52.556;7.970;2022-09-27T07:14:02;10.10;99.90
16515;DHT22;8370;52.556;7.970;2022-09-27T07:16:29;10.20;99.90
16515;DHT22;8370;52.556;7.970;2022-09-27T07:18:55;10.20;99.90
16515;DHT22;8370;52.556;7.970;2022-09-27T07:21:22;10.30;99.90
16515;DHT22;8370;52.556;7.970;2022-09-27T07:23:48;10.30;99.90
16515;DHT22;8370;52.556;7.970;2022-09-27T07:26:14;10.30;99.90
16515;DHT22;8370;52.556;7.970;2022-09-27T07:28:39;10.40;99.90
16515;DHT22;8370;52.556;7.970;2022-09-27T07:31:08;10.40;99.90
16515;DHT22;8370;52.556;7.970;2022-09-27T07:33:34;10.50;99.90
16515;DHT22;8370;52.556;7.970;2022-09-27T07:36:00;10.50;99.90
16515;DHT22;8370;52.556;7.970;2022-09-27T07:38:25;10.50;99.90
16515;DHT22;8370;52.556;7.970;2022-09-27T07:40:51;10.70;99.90
16515;DHT22;8370;52.556;7.970;2022-09-27T07:43:17;10.70;99.90
16515;DHT22;8370;52.556;7.970;2022-09-27T07:45:44;10.80;99.90
16515;DHT22;8370;52.556;7.970;2022-09-27T07:48:12;10.90;99.90
16515;DHT22;8370;52.556;7.970;2022-09-27T07:50:38;10.90;99.90
16515;DHT22;8370;52.556;7.970;2022-09-27T07:53:04;10.90;99.90
16515;DHT22;8370;52.556;7.970;2022-09-27T07:55:30;10.90;99.90
16515;DHT22;8370;52.556;7.970;2022-09-27T07:58:07;11.00;99.90
16515;DHT22;8370;52.556;7.970;2022-09-27T08:00:33;11.00;99.90
16515;DHT22;8370;52.556;7.970;2022-09-27T08:03:07;11.00;99.90
16515;DHT22;8370;52.556;7.970;2022-09-27T08:05:34;11.10;99.90
16515;DHT22;8370;52.556;7.970;2022-09-27T08:08:00;11.00;99.90
16515;DHT22;8370;52.556;7.970;2022-09-27T08:10:28;11.00;99.90
16515;DHT22;8370;52.556;7.970;2022-09-27T08:12:55;11.10;99.90
16515;DHT22;8370;52.556;7.970;2022-09-27T08:15:20;11.20;99.90
16515;DHT22;8370;52.556;7.970;2022-09-27T08:17:46;11.20;99.90
16515;DHT22;8370;52.556;7.970;2022-09-27T08:20:11;11.20;99.90
16515;DHT22;8370;52.556;7.970;2022-09-27T08:22:42;11.20;99.90
16515;DHT22;8370;52.556;7.970;2022-09-27T08:25:08;11.20;99.90
16515;DHT22;8370;52.556;7.970;2022-09-27T08:27:34;11.20;99.90
16515;DHT22;8370;52.556;7.970;2022-09-27T08:29:59;11.30;99.90
16515;DHT22;8370;52.556;7.970;2022-09-27T08:32:25;11.30;99.90
16515;DHT22;8370;52.556;7.970;2022-09-27T08:34:53;11.50;99.90
16515;DHT22;8370;52.556;7.970;2022-09-27T08:37:18;11.50;99.90
16515;DHT22;8370;52.556;7.970;2022-09-27T08:39:44;11.60;99.90
16515;DHT22;8370;52.556;7.970;2022-09-27T08:42:23;11.60;99.90
16515;DHT22;8370;52.556;7.970;2022-09-27T08:45:13;11.70;99.90
16515;DHT22;8370;52.556;7.970;2022-09-27T08:47:44;11.80;99.90
16515;DHT22;8370;52.556;7.970;2022-09-27T08:53:06;11.90;99.90
16515;DHT22;8370;52.556;7.970;2022-09-27T08:55:41;11.90;99.90
16515;DHT22;8370;52.556;7.970;2022-09-27T08:58:22;11.90;99.90
16515;DHT22;8370;52.556;7.970;2022-09-27T09:01:04;11.90;99.90
16515;DHT22;8370;52.556;7.970;2022-09-27T09:03:34;11.90;99.90
16515;DHT22;8370;52.556;7.970;2022-09-27T09:06:13;12.10;99.90
16515;DHT22;8370;52.556;7.970;2022-09-27T09:11:32;12.20;99.90
16515;DHT22;8370;52.556;7.970;2022-09-27T09:14:45;12.20;99.90
16515;DHT22;8370;52.556;7.970;2022-09-27T09:17:23;12.30;99.90
16515;DHT22;8370;52.556;7.970;2022-09-27T09:20:06;12.30;99.90
16515;DHT22;8370;52.556;7.970;2022-09-27T09:25:27;12.20;99.90
16515;DHT22;8370;52.556;7.970;2022-09-27T09:28:15;12.20;99.90
16515;DHT22;8370;52.556;7.970;2022-09-27T09:31:01;12.20;99.90
16515;DHT22;8370;52.556;7.970;2022-09-27T09:33:37;12.10;99.90
16515;DHT22;8370;52.556;7.970;2022-09-27T09:43:49;12.20;99.90
16515;DHT22;8370;52.556;7.970;2022-09-27T09:46:26;12.30;99.90
16515;DHT22;8370;52.556;7.970;2022-09-27T09:51:43;12.30;99.90
16515;DHT22;8370;52.556;7.970;2022-09-27T09:54:21;12.30;99.90
16515;DHT22;8370;52.556;7.970;2022-09-27T09:56:54;12.40;99.90
16515;DHT22;8370;52.556;7.970;2022-09-27T09:59:27;12.40;99.90
16515;DHT22;8370;52.556;7.970;2022-09-27T10:01:56;12.50;99.90
16515;DHT22;8370;52.556;7.970;2022-09-27T10:04:27;12.60;99.90
16515;DHT22;8370;52.556;7.970;2022-09-27T10:06:54;12.60;99.90
16515;DHT22;8370;52.556;7.970;2022-09-27T10:09:23;12.70;99.90
16515;DHT22;8370;52.556;7.970;2022-09-27T10:11:50;12.70;99.90
16515;DHT22;8370;52.556;7.970;2022-09-27T10:14:19;12.70;99.90
16515;DHT22;8370;52.556;7.970;2022-09-27T10:16:48;12.70;99.90
16515;DHT22;8370;52.556;7.970;2022-09-27T10:19:26;12.80;99.90
16515;DHT22;8370;52.556;7.970;2022-09-27T10:21:58;12.70;99.90
16515;DHT22;8370;52.556;7.970;2022-09-27T10:24:26;12.80;99.90
16515;DHT22;8370;52.556;7.970;2022-09-27T10:26:56;12.70;99.90
16515;DHT22;8370;52.556;7.970;2022-09-27T10:29:33;12.70;99.90
16515;DHT22;8370;52.556;7.970;2022-09-27T10:32:01;12.70;99.90
16515;DHT22;8370;52.556;7.970;2022-09-27T10:34:40;12.60;99.90
16515;DHT22;8370;52.556;7.970;2022-09-27T10:39:38;12.60;99.90
16515;DHT22;8370;52.556;7.970;2022-09-27T10:44:47;12.50;99.90
16515;DHT22;8370;52.556;7.970;2022-09-27T10:47:17;12.50;99.90
16515;DHT22;8370;52.556;7.970;2022-09-27T10:49:47;12.50;99.90
16515;DHT22;8370;52.556;7.970;2022-09-27T10:52:21;12.60;99.90
16515;DHT22;8370;52.556;7.970;2022-09-27T10:54:56;12.70;99.90
16515;DHT22;8370;52.556;7.970;2022-09-27T10:57:25;12.70;99.90
16515;DHT22;8370;52.556;7.970;2022-09-27T10:59:55;12.80;99.90
16515;DHT22;8370;52.556;7.970;2022-09-27T11:02:33;12.90;99.90
16515;DHT22;8370;52.556;7.970;2022-09-27T11:05:11;13.20;99.90
16515;DHT22;8370;52.556;7.970;2022-09-27T11:07:50;13.80;99.90
16515;DHT22;8370;52.556;7.970;2022-09-27T11:10:33;13.80;99.90
16515;DHT22;8370;52.556;7.970;2022-09-27T11:13:16;13.90;99.90
16515;DHT22;8370;52.556;7.970;2022-09-27T11:19:06;13.80;99.90
16515;DHT22;8370;52.556;7.970;2022-09-27T11:29:21;17.60;99.90
16515;DHT22;8370;52.556;7.970;2022-09-27T11:37:31;14.90;99.90
16515;DHT22;8370;52.556;7.970;2022-09-27T11:57:27;15.60;99.90
16515;DHT22;8370;52.556;7.970;2022-09-27T12:00:20;15.90;99.90
16515;DHT22;8370;52.556;7.970;2022-09-27T12:08:46;14.60;99.90
16515;DHT22;8370;52.556;7.970;2022-09-27T12:11:54;14.40;99.90
16515;DHT22;8370;52.556;7.970;2022-09-27T12:14:23;14.20;99.90
16515;DHT22;8370;52.556;7.970;2022-09-27T12:16:52;14.00;99.90
16515;DHT22;8370;52.556;7.970;2022-09-27T12:19:29;13.90;99.90
16515;DHT22;8370;52.556;7.970;2022-09-27T12:22:01;13.80;99.90
16515;DHT22;8370;52.556;7.970;2022-09-27T12:24:27;13.80;99.90
16515;DHT22;8370;52.556;7.970;2022-09-27T12:26:55;13.80;99.90
16515;DHT22;8370;52.556;7.970;2022-09-27T12:29:33;13.80;99.90
16515;DHT22;8370;52.556;7.970;2022-09-27T12:32:13;13.60;99.90
16515;DHT22;8370;52.556;7.970;2022-09-27T12:35:08;13.30;99.90
16515;DHT22;8370;52.556;7.970;2022-09-27T12:38:11;13.00;99.90
16515;DHT22;8370;52.556;7.970;2022-09-27T12:40:40;12.80;99.90
16515;DHT22;8370;52.556;7.970;2022-09-27T12:48:46;12.20;99.90
16515;DHT22;8370;52.556;7.970;2022-09-27T12:51:18;12.00;99.90
16515;DHT22;8370;52.556;7.970;2022-09-27T12:54:08;11.90;99.90
16515;DHT22;8370;52.556;7.970;2022-09-27T12:56:50;11.90;99.90
16515;DHT22;8370;52.556;7.970;2022-09-27T13:00:05;12.10;99.90
16515;DHT22;8370;52.556;7.970;2022-09-27T13:05:37;13.10;99.90
16515;DHT22;8370;52.556;7.970;2022-09-27T13:13:32;13.30;99.90
16515;DHT22;8370;52.556;7.970;2022-09-27T13:16:00;13.10;99.90
16515;DHT22;8370;52.556;7.970;2022-09-27T13:21:01;12.80;99.90
16515;DHT22;8370;52.556;7.970;2022-09-27T13:28:59;12.50;99.90
16515;DHT22;8370;52.556;7.970;2022-09-27T13:34:37;12.40;99.90
16515;DHT22;8370;52.556;7.970;2022-09-27T13:45:23;12.10;99.90
16515;DHT22;8370;52.556;7.970;2022-09-27T13:47:53;12.10;99.90
16515;DHT22;8370;52.556;7.970;2022-09-27T13:50:25;12.20;99.90
16515;DHT22;8370;52.556;7.970;2022-09-27T13:53:19;12.40;99.90
16515;DHT22;8370;52.556;7.970;2022-09-27T13:55:49;12.50;99.90
16515;DHT22;8370;52.556;7.970;2022-09-27T14:00:51;12.80;99.90
16515;DHT22;8370;52.556;7.970;2022-09-27T14:05:54;13.10;99.90
16515;DHT22;8370;52.556;7.970;2022-09-27T14:11:39;13.60;99.90
16515;DHT22;8370;52.556;7.970;2022-09-27T14:14:14;13.70;99.90
16515;DHT22;8370;52.556;7.970;2022-09-27T14:16:43;13.60;99.90
16515;DHT22;8370;52.556;7.970;2022-09-27T14:19:14;13.50;99.90
16515;DHT22;8370;52.556;7.970;2022-09-27T14:21:41;13.30;99.90
16515;DHT22;8370;52.556;7.970;2022-09-27T14:24:28;13.10;99.90
16515;DHT22;8370;52.556;7.970;2022-09-27T14:27:26;12.90;99.90
16515;DHT22;8370;52.556;7.970;2022-09-27T14:29:57;12.50;99.90
16515;DHT22;8370;52.556;7.970;2022-09-27T14:32:29;12.20;99.90
16515;DHT22;8370;52.556;7.970;2022-09-27T14:35:33;11.90;99.90
16515;DHT22;8370;52.556;7.970;2022-09-27T14:38:28;11.70;99.90
16515;DHT22;8370;52.556;7.970;2022-09-27T14:41:01;11.50;99.90
16515;DHT22;8370;52.556;7.970;2022-09-27T14:43:28;11.40;99.90
16515;DHT22;8370;52.556;7.970;2022-09-27T14:46:05;11.40;99.90
16515;DHT22;8370;52.556;7.970;2022-09-27T14:48:39;11.40;99.90
16515;DHT22;8370;52.556;7.970;2022-09-27T14:53:51;11.50;99.90
16515;DHT22;8370;52.556;7.970;2022-09-27T14:56:28;11.60;99.90
16515;DHT22;8370;52.556;7.970;2022-09-27T14:59:02;11.50;99.90
16515;DHT22;8370;52.556;7.970;2022-09-27T15:01:29;11.60;99.90
16515;DHT22;8370;52.556;7.970;2022-09-27T15:04:01;11.80;99.90
16515;DHT22;8370;52.556;7.970;2022-09-27T15:06:28;11.80;99.90
16515;DHT22;8370;52.556;7.970;2022-09-27T15:08:54;11.90;99.90
16515;DHT22;8370;52.556;7.970;2022-09-27T15:11:20;11.90;99.90
16515;DHT22;8370;52.556;7.970;2022-09-27T15:13:49;11.90;99.90
16515;DHT22;8370;52.556;7.970;2022-09-27T15:16:18;11.90;99.90
16515;DHT22;8370;52.556;7.970;2022-09-27T15:18:57;11.90;99.90
16515;DHT22;8370;52.556;7.970;2022-09-27T15:21:35;11.90;99.90
16515;DHT22;8370;52.556;7.970;2022-09-27T15:24:01;12.00;99.90
16515;DHT22;8370;52.556;7.970;2022-09-27T15:26:36;12.10;99.90
16515;DHT22;8370;52.556;7.970;2022-09-27T15:29:04;12.10;99.90
16515;DHT22;8370;52.556;7.970;2022-09-27T15:31:32;12.10;99.90
16515;DHT22;8370;52.556;7.970;2022-09-27T15:33:59;12.20;99.90
16515;DHT22;8370;52.556;7.970;2022-09-27T15:39:16;12.10;99.90
16515;DHT22;8370;52.556;7.970;2022-09-27T15:42:10;11.90;99.90
16515;DHT22;8370;52.556;7.970;2022-09-27T15:44:47;11.80;99.90
16515;DHT22;8370;52.556;7.970;2022-09-27T15:52:43;11.60;99.90
16515;DHT22;8370;52.556;7.970;2022-09-27T15:55:13;11.60;99.90
16515;DHT22;8370;52.556;7.970;2022-09-27T15:57:39;11.50;99.90
16515;DHT22;8370;52.556;7.970;2022-09-27T16:00:09;11.50;99.90
16515;DHT22;8370;52.556;7.970;2022-09-27T16:02:36;11.50;99.90
16515;DHT22;8370;52.556;7.970;2022-09-27T16:05:02;11.50;99.90
16515;DHT22;8370;52.556;7.970;2022-09-27T16:07:27;11.50;99.90
16515;DHT22;8370;52.556;7.970;2022-09-27T16:09:53;11.40;99.90
16515;DHT22;8370;52.556;7.970;2022-09-27T16:12:20;11.40;99.90
16515;DHT22;8370;52.556;7.970;2022-09-27T16:14:45;11.30;99.90
16515;DHT22;8370;52.556;7.970;2022-09-27T16:17:11;11.30;99.90
16515;DHT22;8370;52.556;7.970;2022-09-27T16:19:37;11.40;99.90
16515;DHT22;8370;52.556;7.970;2022-09-27T16:22:03;11.40;99.90
16515;DHT22;8370;52.556;7.970;2022-09-27T16:24:30;11.40;99.90
16515;DHT22;8370;52.556;7.970;2022-09-27T16:26:56;11.40;99.90
16515;DHT22;8370;52.556;7.970;2022-09-27T16:29:22;11.40;99.90
16515;DHT22;8370;52.556;7.970;2022-09-27T16:31:48;11.40;99.90
16515;DHT22;8370;52.556;7.970;2022-09-27T16:34:14;11.40;99.90
16515;DHT22;8370;52.556;7.970;2022-09-27T16:36:39;11.30;99.90
16515;DHT22;8370;52.556;7.970;2022-09-27T16:39:07;11.20;99.90
16515;DHT22;8370;52.556;7.970;2022-09-27T16:41:34;11.20;99.90
16515;DHT22;8370;52.556;7.970;2022-09-27T16:44:05;11.20;99.90
16515;DHT22;8370;52.556;7.970;2022-09-27T16:46:31;11.20;99.90
16515;DHT22;8370;52.556;7.970;2022-09-27T16:48:58;11.10;99.90
16515;DHT22;8370;52.556;7.970;2022-09-27T16:51:24;11.10;99.90
16515;DHT22;8370;52.556;7.970;2022-09-27T16:54:08;11.10;99.90
16515;DHT22;8370;52.556;7.970;2022-09-27T16:56:35;11.00;99.90
16515;DHT22;8370;52.556;7.970;2022-09-27T16:59:02;10.90;99.90
16515;DHT22;8370;52.556;7.970;2022-09-27T17:01:29;10.90;99.90
16515;DHT22;8370;52.556;7.970;2022-09-27T17:03:55;10.80;99.90
16515;DHT22;8370;52.556;7.970;2022-09-27T17:06:22;10.80;99.90
16515;DHT22;8370;52.556;7.970;2022-09-27T17:08:48;10.70;99.90
16515;DHT22;8370;52.556;7.970;2022-09-27T17:11:16;10.60;99.90
16515;DHT22;8370;52.556;7.970;2022-09-27T17:13:42;10.60;99.90
16515;DHT22;8370;52.556;7.970;2022-09-27T17:16:09;10.50;99.90
16515;DHT22;8370;52.556;7.970;2022-09-27T17:18:35;10.50;99.90
16515;DHT22;8370;52.556;7.970;2022-09-27T17:21:02;10.40;99.90
16515;DHT22;8370;52.556;7.970;2022-09-27T17:23:29;10.40;99.90
16515;DHT22;8370;52.556;7.970;2022-09-27T17:26:01;10.30;99.90
16515;DHT22;8370;52.556;7.970;2022-09-27T17:28:28;10.30;99.90
16515;DHT22;8370;52.556;7.970;2022-09-27T17:30:53;10.30;99.90
16515;DHT22;8370;52.556;7.970;2022-09-27T17:33:25;10.20;99.90
16515;DHT22;8370;52.556;7.970;2022-09-27T17:35:57;10.20;99.90
16515;DHT22;8370;52.556;7.970;2022-09-27T17:38:24;10.20;99.90
16515;DHT22;8370;52.556;7.970;2022-09-27T17:40:59;10.10;99.90
16515;DHT22;8370;52.556;7.970;2022-09-27T17:43:24;10.10;99.90
16515;DHT22;8370;52.556;7.970;2022-09-27T17:45:50;10.10;99.90
16515;DHT22;8370;52.556;7.970;2022-09-27T17:48:15;10.00;99.90
16515;DHT22;8370;52.556;7.970;2022-09-27T17:50:59;10.00;99.90
16515;DHT22;8370;52.556;7.970;2022-09-27T17:53:25;10.00;99.90
16515;DHT22;8370;52.556;7.970;2022-09-27T17:55:50;9.90;99.90
16515;DHT22;8370;52.556;7.970;2022-09-27T17:58:18;9.90;99.90
16515;DHT22;8370;52.556;7.970;2022-09-27T18:00:45;9.90;99.90
16515;DHT22;8370;52.556;7.970;2022-09-27T18:03:11;9.90;99.90
16515;DHT22;8370;52.556;7.970;2022-09-27T18:05:36;9.80;99.90
16515;DHT22;8370;52.556;7.970;2022-09-27T18:08:02;9.80;99.90
16515;DHT22;8370;52.556;7.970;2022-09-27T18:10:28;9.80;99.90
16515;DHT22;8370;52.556;7.970;2022-09-27T18:12:54;9.70;99.90
16515;DHT22;8370;52.556;7.970;2022-09-27T18:15:19;9.70;99.90
16515;DHT22;8370;52.556;7.970;2022-09-27T18:17:49;9.70;99.90
16515;DHT22;8370;52.556;7.970;2022-09-27T18:20:14;9.60;99.90
16515;DHT22;8370;52.556;7.970;2022-09-27T18:22:40;9.60;99.90
16515;DHT22;8370;52.556;7.970;2022-09-27T18:25:05;9.60;99.90
16515;DHT22;8370;52.556;7.970;2022-09-27T18:27:31;9.60;99.90
16515;DHT22;8370;52.556;7.970;2022-09-27T18:29:58;9.60;99.90
16515;DHT22;8370;52.556;7.970;2022-09-27T18:32:27;9.60;99.90
16515;DHT22;8370;52.556;7.970;2022-09-27T18:34:52;9.50;99.90
16515;DHT22;8370;52.556;7.970;2022-09-27T18:37:18;9.50;99.90
16515;DHT22;8370;52.556;7.970;2022-09-27T18:39:43;9.50;99.90
16515;DHT22;8370;52.556;7.970;2022-09-27T18:42:08;9.40;99.90
16515;DHT22;8370;52.556;7.970;2022-09-27T18:44:34;9.40;99.90
16515;DHT22;8370;52.556;7.970;2022-09-27T18:47:00;9.40;99.90
16515;DHT22;8370;52.556;7.970;2022-09-27T18:49:25;9.40;99.90